Time;durP1;ratioP1;P1;durP2;ratioP2;P2;SDS_P1;SDS_P2;PMS_P1;PMS_P2;Temp;Humidity;BMP_temperature;BMP_pressure;BME280_temperature;BME280_humidity;BME280_pressure;Samples;Min_cycle;Max_cycle;Signal;HPM_P1;HPM_P2
2023/03/21 00:02:25;;;;;;;20.85;15.30;;;;;;;7.43;100.00;100953.97;5004262;28;20474;-79
2023/03/21 00:04:51;;;;;;;31.63;17.10;;;;;;;7.44;100.00;100953.13;4992039;28;21186;-75
2023/03/21 00:07:18;;;;;;;24.23;14.80;;;;;;;7.45;100.00;100949.66;5020841;28;20050;-75
2023/03/21 00:09:45;;;;;;;28.90;16.27;;;;;;;7.42;100.00;100942.69;5003164;28;20041;-76
2023/03/21 00:12:11;;;;;;;25.73;16.48;;;;;;;7.41;100.00;100943.53;5002386;28;20029;-75
2023/03/21 00:14:38;;;;;;;23.40;14.32;;;;;;;7.42;100.00;100947.03;5002254;28;20125;-80
2023/03/21 00:17:04;;;;;;;23.65;15.30;;;;;;;7.41;100.00;100938.34;5001939;28;20431;-74
2023/03/21 00:19:31;;;;;;;22.90;15.02;;;;;;;7.41;100.00;100938.34;4996292;28;20041;-78
2023/03/21 00:21:58;;;;;;;26.02;15.00;;;;;;;7.42;100.00;100944.44;5003825;28;21074;-75
2023/03/21 00:24:24;;;;;;;20.17;15.02;;;;;;;7.43;100.00;100933.13;5023569;28;20033;-75
2023/03/21 00:26:51;;;;;;;18.73;14.23;;;;;;;7.45;100.00;100929.69;5004127;28;20049;-81
2023/03/21 00:29:18;;;;;;;25.90;17.55;;;;;;;7.48;100.00;100933.19;5003429;28;20045;-79
2023/03/21 00:31:45;;;;;;;21.15;14.80;;;;;;;7.46;100.00;100927.97;5005232;28;20060;-77
2023/03/21 00:34:11;;;;;;;21.63;15.73;;;;;;;7.44;100.00;100927.97;4983933;28;20064;-76
2023/03/21 00:36:38;;;;;;;25.27;15.82;;;;;;;7.44;100.00;100925.34;4999280;28;20095;-80
2023/03/21 00:39:07;;;;;;;21.92;14.70;;;;;;;7.45;100.00;100923.63;5018499;28;20058;-76
2023/03/21 00:41:34;;;;;;;21.60;15.80;;;;;;;7.47;100.00;100924.50;4999336;28;20423;-77
2023/03/21 00:44:02;;;;;;;24.50;15.25;;;;;;;7.48;100.00;100923.63;4971615;28;20680;-74
2023/03/21 00:46:29;;;;;;;20.92;15.15;;;;;;;7.48;100.00;100923.63;4981338;28;20152;-82
2023/03/21 00:48:56;;;;;;;20.40;14.93;;;;;;;7.45;100.00;100916.66;5002828;28;20045;-75
2023/03/21 00:51:25;;;;;;;25.17;16.98;;;;;;;7.48;100.00;100913.22;4990633;28;20037;-78
2023/03/21 00:53:57;;;;;;;22.50;15.40;;;;;;;7.47;100.00;100913.19;5002317;28;20071;-74
2023/03/21 00:56:24;;;;;;;22.95;13.98;;;;;;;7.51;100.00;100914.97;5003521;28;20042;-75
2023/03/21 00:58:51;;;;;;;24.67;15.27;;;;;;;7.53;100.00;100911.50;5002192;28;20056;-77
2023/03/21 01:01:17;;;;;;;22.98;14.60;;;;;;;7.52;100.00;100901.97;4984851;28;20123;-76
2023/03/21 01:03:49;;;;;;;24.20;14.77;;;;;;;7.54;100.00;100907.19;4999262;28;20051;-76
2023/03/21 01:06:20;;;;;;;20.00;14.90;;;;;;;7.57;100.00;100908.09;5007467;28;20041;-82
2023/03/21 01:08:48;;;;;;;24.80;15.48;;;;;;;7.60;100.00;100902.91;5009498;28;20403;-73
2023/03/21 01:11:19;;;;;;;19.80;12.40;;;;;;;7.62;100.00;100903.75;4986810;28;20041;-82
2023/03/21 01:13:46;;;;;;;24.67;13.85;;;;;;;7.64;100.00;100905.50;5005371;28;20585;-77
2023/03/21 01:16:13;;;;;;;25.08;15.85;;;;;;;7.67;100.00;100896.00;5005282;28;20033;-74
2023/03/21 01:18:41;;;;;;;21.05;14.68;;;;;;;7.68;100.00;100907.28;4989623;28;20696;-76
2023/03/21 01:21:12;;;;;;;21.45;14.75;;;;;;;7.66;100.00;100893.38;4984949;28;20480;-77
2023/03/21 01:23:41;;;;;;;22.65;15.25;;;;;;;7.64;100.00;100902.91;5004137;28;20786;-75
2023/03/21 01:26:10;;;;;;;24.65;15.02;;;;;;;7.62;100.00;100895.09;5007008;28;20085;-75
2023/03/21 01:28:39;;;;;;;22.00;15.68;;;;;;;7.59;100.00;100898.53;5003211;28;20038;-80
2023/03/21 01:31:06;;;;;;;18.90;13.35;;;;;;;7.57;100.00;100897.69;4999747;28;20050;-80
2023/03/21 01:33:34;;;;;;;22.20;14.45;;;;;;;7.58;100.00;100896.78;4987772;28;20050;-81
2023/03/21 01:36:01;;;;;;;24.88;16.50;;;;;;;7.60;100.00;100891.59;5002421;28;20044;-79
2023/03/21 01:38:28;;;;;;;22.27;15.50;;;;;;;7.60;100.00;100897.69;4999230;28;20056;-83
2023/03/21 01:40:55;;;;;;;21.67;13.65;;;;;;;7.60;100.00;100889.88;4998582;28;20160;-81
2023/03/21 01:43:26;;;;;;;21.73;13.88;;;;;;;7.62;100.00;100895.09;5022130;28;20038;-78
2023/03/21 01:46:29;;;;;;;18.20;13.10;;;;;;;7.66;100.00;100882.97;5000967;28;20041;-76
2023/03/21 01:49:07;;;;;;;21.83;14.73;;;;;;;7.66;100.00;100881.22;5005062;28;20052;-75
2023/03/21 01:51:39;;;;;;;21.17;13.95;;;;;;;7.68;100.00;100881.22;5006747;28;20072;-75
2023/03/21 01:54:15;;;;;;;24.67;15.07;;;;;;;7.69;100.00;100878.66;4987381;28;20049;-83
2023/03/21 01:56:45;;;;;;;20.98;14.77;;;;;;;7.66;100.00;100877.75;4999315;28;20050;-76
2023/03/21 01:59:21;;;;;;;21.10;14.85;;;;;;;7.65;100.00;100879.47;5005469;28;20128;-75
2023/03/21 02:01:50;;;;;;;19.25;14.23;;;;;;;7.65;100.00;100876.84;5007438;28;20145;-74
2023/03/21 02:04:21;;;;;;;18.98;13.52;;;;;;;7.66;100.00;100875.13;5004937;28;20059;-74
2023/03/21 02:06:57;;;;;;;21.35;13.65;;;;;;;7.69;100.00;100875.16;5000574;28;20561;-82
2023/03/21 02:09:28;;;;;;;17.13;12.85;;;;;;;7.69;100.00;100872.53;4999942;28;20046;-78
2023/03/21 02:11:55;;;;;;;20.40;14.30;;;;;;;7.68;100.00;100871.69;5006842;28;20045;-77
2023/03/21 02:14:21;;;;;;;19.17;14.02;;;;;;;7.68;100.00;100863.88;5024046;28;20111;-78
2023/03/21 02:17:13;;;;;;;18.50;12.65;;;;;;;7.70;100.00;100864.72;5004232;28;20148;-74
2023/03/21 02:20:20;;;;;;;17.73;13.57;;;;;;;7.73;100.00;100861.28;4997893;28;20049;-75
2023/03/21 02:23:22;;;;;;;17.23;13.85;;;;;;;7.74;100.00;100858.69;5001021;28;20510;-77
2023/03/21 02:26:30;;;;;;;17.50;13.43;;;;;;;7.75;100.00;100857.81;4996381;28;20046;-83
2023/03/21 02:29:28;;;;;;;15.35;12.88;;;;;;;7.77;100.00;100850.03;5004703;28;20049;-76
2023/03/21 02:32:30;;;;;;;22.20;12.88;;;;;;;7.80;100.00;100852.63;5003048;28;20049;-76
2023/03/21 02:35:20;;;;;;;17.50;13.00;;;;;;;7.81;100.00;100853.50;4983791;28;20056;-74
2023/03/21 02:38:01;;;;;;;16.20;12.02;;;;;;;7.82;100.00;100845.69;5009964;28;20076;-76
2023/03/21 02:40:39;;;;;;;18.80;12.70;;;;;;;7.84;100.00;100843.97;5007117;28;20079;-76
2023/03/21 02:43:39;;;;;;;20.15;13.55;;;;;;;7.82;100.00;100840.47;5005160;28;20973;-81
2023/03/21 02:46:17;;;;;;;19.38;13.05;;;;;;;7.83;100.00;100844.81;5004090;28;20037;-82
2023/03/21 02:49:03;;;;;;;16.95;12.55;;;;;;;7.80;100.00;100841.34;5002154;28;20091;-75
2023/03/21 02:51:33;;;;;;;16.35;13.13;;;;;;;7.80;100.00;100838.75;4996873;28;20045;-78
2023/03/21 02:54:15;;;;;;;15.20;12.18;;;;;;;7.81;100.00;100837.88;5022831;28;20042;-79
2023/03/21 02:56:45;;;;;;;20.25;12.45;;;;;;;7.81;100.00;100840.47;5004546;28;20057;-77
2023/03/21 02:59:13;;;;;;;17.67;12.48;;;;;;;7.82;100.00;100835.25;4986602;28;20045;-78
2023/03/21 03:01:40;;;;;;;17.13;12.80;;;;;;;7.81;100.00;100837.88;5005434;28;20038;-77
2023/03/21 03:04:19;;;;;;;18.00;13.63;;;;;;;7.82;100.00;100831.78;5007885;28;20045;-74
2023/03/21 03:07:18;;;;;;;22.25;12.88;;;;;;;7.83;100.00;100836.16;5004792;28;20110;-76
2023/03/21 03:10:18;;;;;;;16.35;12.25;;;;;;;7.83;100.00;100834.41;4999425;28;20143;-75
2023/03/21 03:13:15;;;;;;;16.77;11.95;;;;;;;7.84;100.00;100832.69;5016946;28;20052;-83
2023/03/21 03:16:17;;;;;;;13.30;10.65;;;;;;;7.84;100.00;100830.94;5001654;28;20064;-76
2023/03/21 03:19:00;;;;;;;15.88;11.73;;;;;;;7.86;100.00;100825.72;5002033;28;20053;-77
2023/03/21 03:21:36;;;;;;;18.60;11.07;;;;;;;7.83;100.00;100823.97;5004861;28;20095;-83
2023/03/21 03:24:12;;;;;;;17.25;11.43;;;;;;;7.83;100.00;100823.97;4987761;28;20522;-81
2023/03/21 03:26:45;;;;;;;15.50;10.45;;;;;;;7.85;100.00;100821.38;5002241;28;20139;-77
2023/03/21 03:29:19;;;;;;;17.75;11.45;;;;;;;7.85;100.00;100819.66;5007195;28;20538;-75
2023/03/21 03:32:00;;;;;;;16.80;11.07;;;;;;;7.88;100.00;100821.41;5020428;28;20046;-74
2023/03/21 03:34:38;;;;;;;19.17;11.93;;;;;;;7.86;100.00;100813.59;5005512;28;20061;-75
2023/03/21 03:37:08;;;;;;;18.80;11.80;;;;;;;7.86;100.00;100817.91;5004910;28;20033;-75
2023/03/21 03:39:43;;;;;;;18.70;14.20;;;;;;;7.86;100.00;100820.50;5005548;28;20130;-79
2023/03/21 03:42:28;;;;;;;18.20;11.00;;;;;;;7.87;100.00;100817.91;5000723;28;20049;-78
2023/03/21 03:44:55;;;;;;;19.95;12.23;;;;;;;7.91;100.00;100813.59;5000603;28;20065;-75
2023/03/21 03:47:49;;;;;;;14.32;11.38;;;;;;;7.91;100.00;100819.69;5025588;28;20124;-76
2023/03/21 03:51:07;;;;;;;17.10;11.02;;;;;;;7.92;100.00;100815.34;5022440;28;20061;-74
2023/03/21 03:53:43;;;;;;;16.08;11.50;;;;;;;7.88;100.00;100813.59;4961947;28;20062;-74
2023/03/21 03:56:11;;;;;;;16.80;11.88;;;;;;;7.85;100.00;100809.22;5001374;28;20201;-76
2023/03/21 03:58:39;;;;;;;15.50;11.50;;;;;;;7.84;100.00;100811.84;5011776;28;20049;-74
2023/03/21 04:01:07;;;;;;;19.52;12.52;;;;;;;7.82;100.00;100817.00;5010907;28;20052;-81
2023/03/21 04:03:37;;;;;;;13.82;11.25;;;;;;;7.82;100.00;100814.41;5008218;28;20065;-74
2023/03/21 04:06:05;;;;;;;13.55;10.23;;;;;;;7.81;100.00;100812.69;4994375;28;20049;-78
2023/03/21 04:08:31;;;;;;;13.50;10.80;;;;;;;7.82;100.00;100814.41;5009819;28;20041;-77
2023/03/21 04:10:58;;;;;;;16.52;10.35;;;;;;;7.81;100.00;100811.81;5012958;28;20043;-74
2023/03/21 04:13:25;;;;;;;17.50;11.30;;;;;;;7.82;100.00;100803.13;5024419;28;20052;-76
2023/03/21 04:15:52;;;;;;;15.43;10.88;;;;;;;7.82;100.00;100809.19;5010925;28;20052;-75
2023/03/21 04:18:18;;;;;;;14.60;10.48;;;;;;;7.82;100.00;100806.59;4990842;28;20041;-73
2023/03/21 04:20:46;;;;;;;16.52;10.90;;;;;;;7.84;100.00;100807.47;5009660;28;20049;-80
2023/03/21 04:23:13;;;;;;;13.68;10.95;;;;;;;7.86;100.00;100818.81;4986023;28;20052;-77
2023/03/21 04:25:40;;;;;;;19.67;10.57;;;;;;;7.83;100.00;100810.94;4995381;28;20501;-78
2023/03/21 04:28:06;;;;;;;18.30;11.15;;;;;;;7.84;100.00;100807.47;5026410;28;20057;-79
2023/03/21 04:30:33;;;;;;;15.13;11.27;;;;;;;7.87;100.00;100801.41;5025579;28;20479;-75
2023/03/21 04:33:00;;;;;;;14.63;10.93;;;;;;;7.86;100.00;100810.09;5009715;28;20132;-80
2023/03/21 04:35:28;;;;;;;15.93;10.98;;;;;;;7.88;100.00;100803.16;5005619;28;20053;-73
2023/03/21 04:37:55;;;;;;;18.05;12.48;;;;;;;7.86;100.00;100802.28;5009606;28;20034;-77
2023/03/21 04:40:23;;;;;;;18.05;10.73;;;;;;;7.85;100.00;100803.13;5013346;28;20053;-82
2023/03/21 04:42:50;;;;;;;17.38;12.07;;;;;;;7.85;100.00;100800.53;4990618;28;20052;-76
2023/03/21 04:45:17;;;;;;;17.98;12.27;;;;;;;7.86;100.00;100802.28;5007188;28;20048;-77
2023/03/21 04:47:44;;;;;;;16.90;11.95;;;;;;;7.85;100.00;100796.19;5006410;28;20547;-79
2023/03/21 04:50:12;;;;;;;19.42;12.00;;;;;;;7.83;100.00;100802.28;4990655;28;20042;-76
2023/03/21 04:52:39;;;;;;;19.45;12.98;;;;;;;7.81;100.00;100796.16;5008429;28;20092;-78
2023/03/21 04:55:08;;;;;;;21.85;13.20;;;;;;;7.75;100.00;100795.28;5011495;28;20578;-82
2023/03/21 04:57:38;;;;;;;19.80;12.25;;;;;;;7.73;100.00;100796.13;5008505;28;20050;-75
2023/03/21 05:00:10;;;;;;;14.45;10.60;;;;;;;7.74;100.00;100797.88;5005875;28;20041;-76
2023/03/21 05:02:38;;;;;;;17.33;12.95;;;;;;;7.75;100.00;100797.88;4995273;28;20111;-74
2023/03/21 05:05:05;;;;;;;15.85;11.40;;;;;;;7.77;100.00;100803.13;4990286;28;20052;-80
2023/03/21 05:07:32;;;;;;;19.60;12.38;;;;;;;7.81;100.00;100798.78;5006565;28;20053;-83
2023/03/21 05:09:59;;;;;;;23.70;13.75;;;;;;;7.82;100.00;100795.31;5005981;28;20057;-74
2023/03/21 05:12:25;;;;;;;18.60;12.75;;;;;;;7.84;100.00;100797.06;4993873;28;20056;-75
2023/03/21 05:14:52;;;;;;;15.73;11.38;;;;;;;7.85;100.00;100790.09;5010212;28;20072;-74
2023/03/21 05:17:22;;;;;;;17.90;12.50;;;;;;;7.85;100.00;100793.59;5002063;28;20461;-78
2023/03/21 05:19:49;;;;;;;16.83;11.38;;;;;;;7.86;100.00;100799.66;5007879;28;20168;-74
2023/03/21 05:22:18;;;;;;;17.20;12.38;;;;;;;7.85;100.00;100792.72;5002008;28;20091;-77
2023/03/21 05:24:49;;;;;;;17.45;11.88;;;;;;;7.87;100.00;100791.84;5001017;28;20034;-75
2023/03/21 05:27:32;;;;;;;17.30;11.55;;;;;;;7.88;100.00;100791.00;5005988;28;20064;-82
2023/03/21 05:30:14;;;;;;;18.23;10.55;;;;;;;7.91;100.00;100795.34;5002926;28;20424;-75
2023/03/21 05:32:41;;;;;;;14.85;11.30;;;;;;;7.94;100.00;100788.41;5005294;28;20065;-75
2023/03/21 05:35:08;;;;;;;12.82;10.82;;;;;;;7.98;100.00;100788.41;5004782;28;20045;-75
2023/03/21 05:37:35;;;;;;;15.60;10.32;;;;;;;7.97;100.00;100787.56;4992943;28;20046;-79
2023/03/21 05:40:03;;;;;;;15.18;9.70;;;;;;;8.00;100.00;100791.91;5000028;28;20052;-75
2023/03/21 05:42:30;;;;;;;15.70;10.95;;;;;;;8.04;100.00;100784.09;5006991;28;20033;-75
2023/03/21 05:44:57;;;;;;;14.20;9.85;;;;;;;8.08;100.00;100785.88;4987525;28;20045;-74
2023/03/21 05:47:23;;;;;;;14.35;10.30;;;;;;;8.13;100.00;100791.09;5030225;28;20088;-78
2023/03/21 05:49:50;;;;;;;13.32;11.30;;;;;;;8.12;100.00;100791.94;5002241;28;20049;-77
2023/03/21 05:52:16;;;;;;;17.58;12.85;;;;;;;8.10;100.00;100785.88;5022740;28;20352;-80
2023/03/21 05:54:43;;;;;;;15.80;11.85;;;;;;;8.09;100.00;100786.72;5010034;28;20050;-73
2023/03/21 05:57:10;;;;;;;17.67;11.18;;;;;;;8.08;100.00;100782.38;5008237;28;20069;-77
2023/03/21 05:59:37;;;;;;;15.30;12.10;;;;;;;8.07;100.00;100789.34;5008051;28;20404;-74
2023/03/21 06:02:03;;;;;;;16.17;11.98;;;;;;;8.13;100.00;100790.22;5005581;28;20428;-77
2023/03/21 06:04:30;;;;;;;17.27;11.00;;;;;;;8.14;100.00;100787.63;5025148;28;20546;-75
2023/03/21 06:06:56;;;;;;;19.90;12.02;;;;;;;8.18;100.00;100788.50;5019074;28;20041;-78
2023/03/21 06:09:24;;;;;;;17.17;11.38;;;;;;;8.21;100.00;100786.78;5008514;28;20407;-77
2023/03/21 06:11:57;;;;;;;16.45;10.85;;;;;;;8.24;100.00;100789.38;5001939;28;20045;-80
2023/03/21 06:14:24;;;;;;;18.42;11.52;;;;;;;8.26;100.00;100787.63;5006525;28;20041;-73
2023/03/21 06:16:52;;;;;;;19.20;11.75;;;;;;;8.30;100.00;100791.13;5013320;28;20100;-75
2023/03/21 06:19:20;;;;;;;18.88;13.23;;;;;;;8.33;100.00;100788.56;5009186;28;20040;-75
2023/03/21 06:21:48;;;;;;;21.08;13.52;;;;;;;8.33;100.00;100790.28;5004119;28;20487;-76
2023/03/21 06:24:14;;;;;;;21.08;12.23;;;;;;;8.36;100.00;100792.91;5007061;28;20495;-76
2023/03/21 06:26:42;;;;;;;22.63;12.60;;;;;;;8.37;100.00;100789.41;5005489;28;20435;-75
2023/03/21 06:29:08;;;;;;;15.15;11.82;;;;;;;8.38;100.00;100785.94;5023672;28;20050;-74
2023/03/21 06:31:35;;;;;;;17.83;12.43;;;;;;;8.38;100.00;100784.22;5005680;28;20415;-78
2023/03/21 06:34:02;;;;;;;20.52;13.40;;;;;;;8.40;100.00;100792.91;5022267;28;20049;-78
2023/03/21 06:36:28;;;;;;;26.23;14.52;;;;;;;8.43;100.00;100787.72;5010611;28;20177;-76
2023/03/21 06:38:55;;;;;;;18.60;12.57;;;;;;;8.43;100.00;100792.94;5004452;28;20045;-77
2023/03/21 06:41:22;;;;;;;21.15;13.52;;;;;;;8.47;100.00;100799.03;4996796;28;20046;-81
2023/03/21 06:43:48;;;;;;;30.70;14.30;;;;;;;8.49;100.00;100797.31;5009698;28;20072;-77
2023/03/21 06:46:15;;;;;;;26.45;15.70;;;;;;;8.52;100.00;100793.84;4989665;28;20046;-78
2023/03/21 06:48:43;;;;;;;18.80;13.98;;;;;;;8.53;100.00;100792.97;5011914;28;20048;-77
2023/03/21 06:51:12;;;;;;;17.33;12.10;;;;;;;8.52;100.00;100796.44;5022478;28;20045;-77
2023/03/21 06:53:40;;;;;;;24.17;14.43;;;;;;;8.55;100.00;100796.44;5014620;28;20451;-77
2023/03/21 06:56:11;;;;;;;26.80;14.98;;;;;;;8.57;100.00;100799.94;5017573;28;20046;-79
2023/03/21 06:58:43;;;;;;;20.92;15.77;;;;;;;8.63;100.00;100797.34;5016156;28;20050;-78
2023/03/21 07:05:56;;;;;;;25.98;15.15;;;;;;;8.73;100.00;100793.84;5015865;28;20064;-76
2023/03/21 07:08:33;;;;;;;26.45;14.10;;;;;;;8.75;100.00;100796.47;5009056;28;20052;-76
2023/03/21 07:14:51;;;;;;;26.00;13.80;;;;;;;8.84;100.00;100803.41;5041619;28;20037;-77
2023/03/21 07:17:18;;;;;;;23.92;13.32;;;;;;;8.88;100.00;100808.66;5017328;28;20034;-77
2023/03/21 07:19:44;;;;;;;20.20;12.73;;;;;;;8.92;100.00;100801.72;5021396;28;20448;-77
2023/03/21 07:22:11;;;;;;;25.10;11.82;;;;;;;8.96;100.00;100797.34;5006688;28;20050;-77
2023/03/21 07:24:59;;;;;;;22.58;12.23;;;;;;;9.06;100.00;100797.34;5015265;28;20451;-77
2023/03/21 07:27:26;;;;;;;25.98;14.15;;;;;;;9.13;100.00;100798.22;5002620;28;20084;-76
2023/03/21 07:29:52;;;;;;;19.73;13.27;;;;;;;9.21;100.00;100799.06;5017395;28;20060;-76
2023/03/21 07:32:19;;;;;;;21.60;13.52;;;;;;;9.30;100.00;100795.59;5004206;28;20045;-76
2023/03/21 07:34:45;;;;;;;26.23;14.48;;;;;;;9.42;100.00;100795.53;5034948;28;20049;-76
2023/03/21 07:37:12;;;;;;;22.95;14.95;;;;;;;9.51;100.00;100789.44;5022717;28;20053;-75
2023/03/21 07:39:39;;;;;;;19.85;12.50;;;;;;;9.60;100.00;100792.03;5021050;28;20406;-75
2023/03/21 07:42:11;;;;;;;19.95;12.38;;;;;;;9.63;100.00;100796.38;5017069;28;20043;-77
2023/03/21 07:44:38;;;;;;;19.83;11.90;;;;;;;9.62;100.00;100788.53;5011687;28;20041;-76
2023/03/21 07:47:06;;;;;;;21.08;12.68;;;;;;;9.64;100.00;100785.06;5017784;28;20046;-78
2023/03/21 07:49:33;;;;;;;23.73;12.15;;;;;;;9.68;100.00;100786.78;5021752;28;20093;-76
2023/03/21 07:52:26;;;;;;;21.13;12.20;;;;;;;9.82;100.00;100791.97;5005205;28;20045;-77
2023/03/21 07:54:53;;;;;;;26.20;12.52;;;;;;;9.95;100.00;100792.78;4996011;28;20045;-76
2023/03/21 07:57:23;;;;;;;19.42;13.43;;;;;;;10.04;100.00;100786.66;5009074;28;20096;-79
2023/03/21 07:59:54;;;;;;;20.15;12.60;;;;;;;10.16;100.00;100781.34;5004790;28;20037;-76
2023/03/21 08:02:22;;;;;;;21.55;12.65;;;;;;;10.24;99.87;100789.16;5017839;28;20049;-79
2023/03/21 08:04:49;;;;;;;24.13;13.13;;;;;;;10.30;98.83;100785.63;5024317;28;20098;-75
2023/03/21 08:07:37;;;;;;;19.10;12.40;;;;;;;10.26;98.49;100788.28;5033485;28;20046;-78
2023/03/21 08:10:04;;;;;;;26.42;12.43;;;;;;;10.27;98.44;100789.13;5018113;28;20034;-76
2023/03/21 08:12:31;;;;;;;20.45;12.18;;;;;;;10.21;98.44;100790.06;5001250;28;20052;-78
2023/03/21 08:15:03;;;;;;;26.05;13.00;;;;;;;10.12;98.33;100789.22;5001381;28;20502;-77
2023/03/21 08:17:29;;;;;;;22.30;12.98;;;;;;;10.02;98.91;100794.50;5018622;28;20064;-77
2023/03/21 08:19:56;;;;;;;21.10;12.07;;;;;;;9.92;99.30;100788.44;5000961;28;20084;-76
2023/03/21 08:22:22;;;;;;;20.58;11.60;;;;;;;10.01;99.61;100791.88;5000393;28;20480;-76
2023/03/21 08:24:49;;;;;;;25.65;13.13;;;;;;;9.98;99.56;100791.91;5016621;28;20166;-77
2023/03/21 08:27:15;;;;;;;19.15;13.10;;;;;;;9.83;100.00;100796.31;5032003;28;20053;-80
2023/03/21 08:29:42;;;;;;;28.75;14.15;;;;;;;9.90;100.00;100786.72;4994324;28;20049;-76
2023/03/21 08:32:09;;;;;;;25.77;12.95;;;;;;;9.96;100.00;100791.94;5027455;28;20048;-78
2023/03/21 08:34:41;;;;;;;22.13;12.05;;;;;;;9.93;100.00;100799.75;5017446;28;20111;-77
2023/03/21 08:37:28;;;;;;;21.65;12.60;;;;;;;9.92;100.00;100792.78;5032827;28;20140;-77
2023/03/21 08:40:18;;;;;;;19.73;13.00;;;;;;;9.99;100.00;100796.28;5033278;28;20044;-76
2023/03/21 08:46:33;;;;;;;18.10;11.80;;;;;;;9.85;100.00;100786.72;5026020;28;20051;-76
2023/03/21 08:53:03;;;;;;;14.43;10.60;;;;;;;9.96;100.00;100791.94;5021759;28;20037;-78
2023/03/21 08:55:30;;;;;;;16.10;10.60;;;;;;;10.03;99.39;100788.38;5015572;28;20041;-77
2023/03/21 08:58:04;;;;;;;21.75;11.63;;;;;;;10.06;98.83;100790.13;5033998;28;20091;-75
2023/03/21 09:00:32;;;;;;;16.42;11.23;;;;;;;10.06;99.05;100787.50;5019158;28;20044;-76
2023/03/21 09:03:00;;;;;;;15.45;10.70;;;;;;;10.13;99.03;100793.56;5016011;28;20451;-80
2023/03/21 09:05:27;;;;;;;19.40;11.57;;;;;;;10.19;98.59;100790.94;5016173;28;20053;-77
2023/03/21 09:08:07;;;;;;;25.52;11.45;;;;;;;10.20;97.61;100788.31;5015682;28;20046;-76
2023/03/21 09:14:37;;;;;;;21.73;11.10;;;;;;;10.43;97.04;100779.50;5014050;28;20044;-77
2023/03/21 09:20:49;;;;;;;18.80;10.80;;;;;;;10.54;96.29;100779.44;5033512;28;20045;-76
2023/03/21 09:23:18;;;;;;;24.02;11.57;;;;;;;10.65;95.66;100779.34;5012409;28;20049;-75
2023/03/21 09:25:46;;;;;;;19.60;11.60;;;;;;;10.77;94.59;100779.25;5023587;28;20475;-77
2023/03/21 09:28:13;;;;;;;14.85;9.95;;;;;;;10.88;93.31;100781.78;5029537;28;20132;-75
2023/03/21 09:30:41;;;;;;;18.40;11.40;;;;;;;10.84;93.36;100774.84;4990659;28;20053;-76
2023/03/21 09:33:11;;;;;;;19.58;11.25;;;;;;;10.87;93.64;100777.44;5015867;28;20038;-76
2023/03/21 09:35:38;;;;;;;21.10;11.15;;;;;;;10.95;92.46;100782.59;5016910;28;20128;-76
2023/03/21 09:38:05;;;;;;;17.13;10.25;;;;;;;11.02;92.77;100777.31;5012623;28;20088;-76
2023/03/21 09:40:55;;;;;;;22.67;11.68;;;;;;;11.14;91.60;100778.09;5009106;28;20083;-77
2023/03/21 09:44:07;;;;;;;24.70;10.85;;;;;;;11.28;90.98;100772.69;5035079;28;20503;-77
2023/03/21 09:46:44;;;;;;;21.90;10.55;;;;;;;11.50;91.31;100776.84;5007212;28;20049;-76
2023/03/21 09:49:19;;;;;;;17.58;10.82;;;;;;;11.61;88.43;100779.34;5000572;28;20052;-79
2023/03/21 09:51:52;;;;;;;19.08;10.98;;;;;;;11.57;89.04;100777.63;5031045;28;20056;-76
2023/03/21 09:54:43;;;;;;;18.55;10.52;;;;;;;11.49;89.19;100774.25;5015155;28;20123;-76
2023/03/21 10:01:26;;;;;;;24.95;9.95;;;;;;;11.36;90.14;100776.13;4988135;28;20138;-76
2023/03/21 10:03:55;;;;;;;38.05;11.15;;;;;;;11.19;90.72;100771.91;4954048;28;20531;-76
2023/03/21 10:06:29;;;;;;;16.40;9.68;;;;;;;11.08;91.00;100781.59;4956292;28;20057;-78
2023/03/21 10:09:06;;;;;;;24.65;10.23;;;;;;;10.95;92.52;100783.50;4959215;28;20093;-77
2023/03/21 10:12:00;;;;;;;17.85;10.38;;;;;;;10.89;93.86;100778.28;4974151;28;20141;-77
2023/03/21 10:14:37;;;;;;;18.23;10.55;;;;;;;10.82;95.08;100789.69;4972529;28;20065;-77
2023/03/21 10:17:40;;;;;;;20.20;10.48;;;;;;;10.78;97.19;100787.97;4975955;28;20485;-76
2023/03/21 10:20:17;;;;;;;16.20;9.88;;;;;;;10.67;98.83;100778.44;4956492;29;20142;-78
2023/03/21 10:23:25;;;;;;;20.80;10.95;;;;;;;10.61;99.43;100775.00;4956392;28;20055;-77
2023/03/21 10:25:58;;;;;;;20.80;11.18;;;;;;;10.56;100.00;100764.59;4956580;29;20483;-76
2023/03/21 10:28:43;;;;;;;17.95;10.55;;;;;;;10.60;100.00;100768.91;4941914;29;20406;-77
2023/03/21 10:31:15;;;;;;;16.50;9.63;;;;;;;10.67;100.00;100770.59;4972026;28;20061;-75
2023/03/21 10:33:49;;;;;;;19.83;11.60;;;;;;;10.78;100.00;100767.91;5015666;28;20038;-76
2023/03/21 10:36:25;;;;;;;19.85;11.23;;;;;;;10.78;99.67;100767.91;4997870;28;20038;-76
2023/03/21 10:39:06;;;;;;;22.77;12.65;;;;;;;10.81;99.41;100767.88;4991284;28;20385;-77
2023/03/21 10:41:33;;;;;;;21.20;10.80;;;;;;;10.86;99.57;100760.84;5015737;28;20049;-75
2023/03/21 10:44:16;;;;;;;17.85;9.60;;;;;;;10.86;97.65;100752.13;5016020;28;20045;-76
2023/03/21 10:46:55;;;;;;;17.27;10.60;;;;;;;10.82;97.21;100753.03;4998539;28;20041;-76
2023/03/21 10:49:40;;;;;;;22.05;10.73;;;;;;;10.82;97.65;100751.28;5008417;28;20042;-75
2023/03/21 10:56:08;;;;;;;15.75;8.88;;;;;;;10.82;97.21;100756.53;5035892;28;20049;-76
2023/03/21 11:02:37;;;;;;;16.25;8.77;;;;;;;10.78;99.06;100743.47;5025631;28;20076;-76
2023/03/21 11:05:34;;;;;;;13.65;7.78;;;;;;;10.72;100.00;100752.25;5012771;28;20053;-77
2023/03/21 11:08:28;;;;;;;15.55;7.95;;;;;;;10.65;100.00;100747.94;5029396;28;20157;-75
2023/03/21 11:11:02;;;;;;;15.55;9.20;;;;;;;10.68;100.00;100751.41;5018081;28;20060;-77
2023/03/21 11:13:40;;;;;;;16.17;8.77;;;;;;;10.62;100.00;100746.19;5020245;28;20045;-77
2023/03/21 11:16:40;;;;;;;17.58;9.15;;;;;;;10.59;100.00;100746.22;5035297;28;20064;-76
2023/03/21 11:19:36;;;;;;;16.02;8.13;;;;;;;10.59;100.00;100739.25;5013708;28;20184;-76
2023/03/21 11:22:08;;;;;;;12.25;8.10;;;;;;;10.57;100.00;100745.38;5001018;28;20165;-76
2023/03/21 11:24:36;;;;;;;12.15;7.13;;;;;;;10.61;100.00;100738.38;5016007;28;20065;-77
2023/03/21 11:27:07;;;;;;;10.98;7.78;;;;;;;10.62;100.00;100738.34;5022610;28;20088;-76
2023/03/21 11:29:40;;;;;;;19.60;9.10;;;;;;;10.68;100.00;100738.31;5017718;28;20095;-76
2023/03/21 11:32:36;;;;;;;15.40;8.25;;;;;;;10.77;100.00;100737.38;5020775;28;20059;-78
2023/03/21 11:38:10;;;;;;;18.88;8.75;;;;;;;10.87;100.00;100725.03;4959790;28;20067;-76
2023/03/21 11:40:38;;;;;;;14.73;8.35;;;;;;;10.79;100.00;100732.97;4942557;28;20046;-76
2023/03/21 11:43:22;;;;;;;17.10;8.43;;;;;;;10.74;100.00;100730.41;5014076;28;20058;-77
2023/03/21 11:46:14;;;;;;;18.85;9.30;;;;;;;10.77;100.00;100726.91;5027014;28;20045;-78
2023/03/21 11:49:02;;;;;;;16.55;8.93;;;;;;;10.70;100.00;100723.47;5031949;28;20203;-76
2023/03/21 11:56:00;;;;;;;20.80;9.23;;;;;;;10.46;100.00;100721.03;5042791;28;20037;-77
2023/03/21 11:58:46;;;;;;;19.13;10.60;;;;;;;10.36;100.00;100715.84;5001003;28;20053;-76
2023/03/21 12:02:09;;;;;;;18.77;9.35;;;;;;;10.32;100.00;100710.63;5000608;28;20049;-75
2023/03/21 12:04:47;;;;;;;15.95;8.57;;;;;;;10.31;100.00;100708.88;5037624;28;20037;-76
2023/03/21 12:08:00;;;;;;;16.27;9.93;;;;;;;10.31;100.00;100704.53;5039813;28;20137;-76
2023/03/21 12:10:55;;;;;;;37.17;10.70;;;;;;;10.37;100.00;100694.03;5028577;28;20037;-77
2023/03/21 12:13:47;;;;;;;25.20;9.43;;;;;;;10.51;100.00;100698.31;5027430;28;20045;-75
2023/03/21 12:16:45;;;;;;;12.95;7.80;;;;;;;10.64;100.00;100694.72;5035175;28;20045;-76
2023/03/21 12:19:41;;;;;;;11.52;8.07;;;;;;;10.70;100.00;100689.44;5034483;28;20051;-76
2023/03/21 13:00:16;;;;;;;19.30;9.88;;;;;;;10.77;100.00;100658.81;5016844;28;20076;-76
2023/03/21 13:03:10;;;;;;;15.57;9.38;;;;;;;10.88;100.00;100656.09;5020564;28;20099;-77